sensor_id;sensor_type;location;lat;lon;timestamp;P1;durP1;ratioP1;P2;durP2;ratioP2
59062;SDS011;44851;45.648;9.004;2023-03-19T00:01:16;24.60;;;15.73;;
59062;SDS011;44851;45.648;9.004;2023-03-19T00:03:42;24.40;;;14.57;;
59062;SDS011;44851;45.648;9.004;2023-03-19T00:06:07;22.63;;;14.67;;
59062;SDS011;44851;45.648;9.004;2023-03-19T00:08:33;24.07;;;16.07;;
59062;SDS011;44851;45.648;9.004;2023-03-19T00:10:58;23.47;;;16.23;;
59062;SDS011;44851;45.648;9.004;2023-03-19T00:13:23;28.63;;;17.40;;
59062;SDS011;44851;45.648;9.004;2023-03-19T00:15:49;24.70;;;17.00;;
59062;SDS011;44851;45.648;9.004;2023-03-19T00:18:15;24.80;;;16.57;;
59062;SDS011;44851;45.648;9.004;2023-03-19T00:20:40;27.60;;;17.37;;
59062;SDS011;44851;45.648;9.004;2023-03-19T00:23:07;30.63;;;19.27;;
59062;SDS011;44851;45.648;9.004;2023-03-19T00:25:33;28.13;;;18.53;;
59062;SDS011;44851;45.648;9.004;2023-03-19T00:27:58;29.33;;;19.13;;
59062;SDS011;44851;45.648;9.004;2023-03-19T00:30:23;29.57;;;19.43;;
59062;SDS011;44851;45.648;9.004;2023-03-19T00:32:49;27.17;;;17.53;;
59062;SDS011;44851;45.648;9.004;2023-03-19T00:35:15;31.90;;;20.27;;
59062;SDS011;44851;45.648;9.004;2023-03-19T00:37:40;29.20;;;19.40;;
59062;SDS011;44851;45.648;9.004;2023-03-19T00:40:06;30.33;;;19.07;;
59062;SDS011;44851;45.648;9.004;2023-03-19T00:42:32;31.07;;;19.43;;
59062;SDS011;44851;45.648;9.004;2023-03-19T00:44:57;27.17;;;17.90;;
59062;SDS011;44851;45.648;9.004;2023-03-19T00:47:23;27.00;;;18.60;;
59062;SDS011;44851;45.648;9.004;2023-03-19T00:49:49;31.77;;;20.20;;
59062;SDS011;44851;45.648;9.004;2023-03-19T00:52:14;28.13;;;19.40;;
59062;SDS011;44851;45.648;9.004;2023-03-19T00:54:40;32.67;;;18.60;;
59062;SDS011;44851;45.648;9.004;2023-03-19T00:57:06;34.43;;;19.53;;
59062;SDS011;44851;45.648;9.004;2023-03-19T00:59:31;30.07;;;19.80;;
59062;SDS011;44851;45.648;9.004;2023-03-19T01:01:57;32.73;;;21.43;;
59062;SDS011;44851;45.648;9.004;2023-03-19T01:04:22;34.63;;;22.03;;
59062;SDS011;44851;45.648;9.004;2023-03-19T01:06:51;32.17;;;20.50;;
59062;SDS011;44851;45.648;9.004;2023-03-19T01:09:16;33.83;;;21.27;;
59062;SDS011;44851;45.648;9.004;2023-03-19T01:11:42;33.60;;;21.73;;
59062;SDS011;44851;45.648;9.004;2023-03-19T01:14:07;32.07;;;21.43;;
59062;SDS011;44851;45.648;9.004;2023-03-19T01:16:33;32.40;;;21.03;;
59062;SDS011;44851;45.648;9.004;2023-03-19T01:18:59;33.80;;;22.47;;
59062;SDS011;44851;45.648;9.004;2023-03-19T01:21:25;35.37;;;22.63;;
59062;SDS011;44851;45.648;9.004;2023-03-19T01:23:51;36.23;;;22.07;;
59062;SDS011;44851;45.648;9.004;2023-03-19T01:26:17;37.27;;;22.97;;
59062;SDS011;44851;45.648;9.004;2023-03-19T01:28:43;34.23;;;21.67;;
59062;SDS011;44851;45.648;9.004;2023-03-19T01:31:09;36.33;;;21.40;;
59062;SDS011;44851;45.648;9.004;2023-03-19T01:33:35;30.70;;;20.57;;
59062;SDS011;44851;45.648;9.004;2023-03-19T01:36:01;28.23;;;19.77;;
59062;SDS011;44851;45.648;9.004;2023-03-19T01:38:29;35.73;;;20.67;;
59062;SDS011;44851;45.648;9.004;2023-03-19T01:40:55;26.47;;;20.03;;
59062;SDS011;44851;45.648;9.004;2023-03-19T01:43:24;34.63;;;20.63;;
59062;SDS011;44851;45.648;9.004;2023-03-19T01:46:15;31.10;;;21.20;;
59062;SDS011;44851;45.648;9.004;2023-03-19T01:48:59;32.90;;;20.80;;
59062;SDS011;44851;45.648;9.004;2023-03-19T01:51:27;33.23;;;21.70;;
59062;SDS011;44851;45.648;9.004;2023-03-19T01:53:59;29.53;;;20.00;;
59062;SDS011;44851;45.648;9.004;2023-03-19T01:59:21;31.33;;;21.40;;
59062;SDS011;44851;45.648;9.004;2023-03-19T02:01:57;31.23;;;20.30;;
59062;SDS011;44851;45.648;9.004;2023-03-19T02:04:26;29.63;;;19.33;;
59062;SDS011;44851;45.648;9.004;2023-03-19T02:06:54;29.70;;;20.20;;
59062;SDS011;44851;45.648;9.004;2023-03-19T02:09:20;33.20;;;20.07;;
59062;SDS011;44851;45.648;9.004;2023-03-19T02:11:47;31.50;;;21.47;;
59062;SDS011;44851;45.648;9.004;2023-03-19T02:14:15;28.57;;;19.67;;
59062;SDS011;44851;45.648;9.004;2023-03-19T02:16:40;32.90;;;19.93;;
59062;SDS011;44851;45.648;9.004;2023-03-19T02:19:07;30.17;;;20.00;;
59062;SDS011;44851;45.648;9.004;2023-03-19T02:21:37;26.63;;;18.30;;
59062;SDS011;44851;45.648;9.004;2023-03-19T02:26:51;29.67;;;19.00;;
59062;SDS011;44851;45.648;9.004;2023-03-19T02:29:17;31.87;;;20.17;;
59062;SDS011;44851;45.648;9.004;2023-03-19T02:31:43;31.07;;;18.73;;
59062;SDS011;44851;45.648;9.004;2023-03-19T02:36:34;30.17;;;19.40;;
59062;SDS011;44851;45.648;9.004;2023-03-19T02:39:06;27.90;;;18.57;;
59062;SDS011;44851;45.648;9.004;2023-03-19T02:41:47;29.37;;;17.80;;
59062;SDS011;44851;45.648;9.004;2023-03-19T02:44:15;29.13;;;18.77;;
59062;SDS011;44851;45.648;9.004;2023-03-19T02:46:43;25.43;;;17.20;;
59062;SDS011;44851;45.648;9.004;2023-03-19T02:49:09;28.73;;;17.27;;
59062;SDS011;44851;45.648;9.004;2023-03-19T02:51:35;28.20;;;18.10;;
59062;SDS011;44851;45.648;9.004;2023-03-19T02:54:01;23.03;;;17.27;;
59062;SDS011;44851;45.648;9.004;2023-03-19T02:56:27;25.43;;;17.40;;
59062;SDS011;44851;45.648;9.004;2023-03-19T02:58:53;24.30;;;16.93;;
59062;SDS011;44851;45.648;9.004;2023-03-19T03:01:19;24.67;;;14.77;;
59062;SDS011;44851;45.648;9.004;2023-03-19T03:03:45;23.27;;;14.90;;
59062;SDS011;44851;45.648;9.004;2023-03-19T03:06:11;23.13;;;15.13;;
59062;SDS011;44851;45.648;9.004;2023-03-19T03:08:36;24.43;;;15.43;;
59062;SDS011;44851;45.648;9.004;2023-03-19T03:11:02;24.27;;;16.27;;
59062;SDS011;44851;45.648;9.004;2023-03-19T03:13:27;25.43;;;15.27;;
59062;SDS011;44851;45.648;9.004;2023-03-19T03:15:53;23.40;;;15.50;;
59062;SDS011;44851;45.648;9.004;2023-03-19T03:18:18;23.87;;;16.10;;
59062;SDS011;44851;45.648;9.004;2023-03-19T03:20:44;23.97;;;15.70;;
59062;SDS011;44851;45.648;9.004;2023-03-19T03:23:09;23.57;;;15.57;;
59062;SDS011;44851;45.648;9.004;2023-03-19T03:25:35;23.97;;;15.33;;
59062;SDS011;44851;45.648;9.004;2023-03-19T03:28:01;26.53;;;15.60;;
59062;SDS011;44851;45.648;9.004;2023-03-19T03:30:27;23.53;;;15.13;;
59062;SDS011;44851;45.648;9.004;2023-03-19T03:32:52;25.37;;;14.73;;
59062;SDS011;44851;45.648;9.004;2023-03-19T03:35:18;24.83;;;15.77;;
59062;SDS011;44851;45.648;9.004;2023-03-19T03:37:47;24.20;;;15.63;;
59062;SDS011;44851;45.648;9.004;2023-03-19T03:40:14;25.00;;;14.43;;
59062;SDS011;44851;45.648;9.004;2023-03-19T03:42:40;22.17;;;15.63;;
59062;SDS011;44851;45.648;9.004;2023-03-19T03:45:07;22.03;;;14.73;;
59062;SDS011;44851;45.648;9.004;2023-03-19T03:47:33;24.50;;;15.30;;
59062;SDS011;44851;45.648;9.004;2023-03-19T03:49:59;21.30;;;14.30;;
59062;SDS011;44851;45.648;9.004;2023-03-19T03:52:25;21.07;;;12.93;;
59062;SDS011;44851;45.648;9.004;2023-03-19T03:54:55;24.20;;;13.60;;
59062;SDS011;44851;45.648;9.004;2023-03-19T03:57:24;19.90;;;14.67;;
59062;SDS011;44851;45.648;9.004;2023-03-19T03:59:50;22.23;;;15.40;;
59062;SDS011;44851;45.648;9.004;2023-03-19T04:02:16;25.00;;;13.80;;
59062;SDS011;44851;45.648;9.004;2023-03-19T04:04:41;21.40;;;13.80;;
59062;SDS011;44851;45.648;9.004;2023-03-19T04:07:07;22.40;;;14.37;;
59062;SDS011;44851;45.648;9.004;2023-03-19T04:09:32;27.23;;;15.27;;
59062;SDS011;44851;45.648;9.004;2023-03-19T04:11:58;25.10;;;14.57;;
59062;SDS011;44851;45.648;9.004;2023-03-19T04:14:24;26.47;;;15.20;;
59062;SDS011;44851;45.648;9.004;2023-03-19T04:16:50;22.90;;;14.90;;
59062;SDS011;44851;45.648;9.004;2023-03-19T04:19:16;23.07;;;14.60;;
59062;SDS011;44851;45.648;9.004;2023-03-19T04:21:41;23.60;;;15.47;;
59062;SDS011;44851;45.648;9.004;2023-03-19T04:24:07;22.87;;;15.37;;
59062;SDS011;44851;45.648;9.004;2023-03-19T04:26:34;22.63;;;14.93;;
59062;SDS011;44851;45.648;9.004;2023-03-19T04:29:01;22.80;;;14.83;;
59062;SDS011;44851;45.648;9.004;2023-03-19T04:31:26;21.67;;;14.20;;
59062;SDS011;44851;45.648;9.004;2023-03-19T04:33:52;22.63;;;14.37;;
59062;SDS011;44851;45.648;9.004;2023-03-19T04:36:18;21.03;;;14.20;;
59062;SDS011;44851;45.648;9.004;2023-03-19T04:38:43;27.13;;;15.47;;
59062;SDS011;44851;45.648;9.004;2023-03-19T04:41:09;22.70;;;14.43;;
59062;SDS011;44851;45.648;9.004;2023-03-19T04:43:35;21.90;;;14.67;;
59062;SDS011;44851;45.648;9.004;2023-03-19T04:46:01;19.67;;;14.27;;
59062;SDS011;44851;45.648;9.004;2023-03-19T04:48:26;28.43;;;16.70;;
59062;SDS011;44851;45.648;9.004;2023-03-19T04:50:52;24.17;;;15.97;;
59062;SDS011;44851;45.648;9.004;2023-03-19T04:53:21;24.83;;;16.27;;
59062;SDS011;44851;45.648;9.004;2023-03-19T04:55:47;24.70;;;15.73;;
59062;SDS011;44851;45.648;9.004;2023-03-19T04:58:13;24.57;;;16.70;;
59062;SDS011;44851;45.648;9.004;2023-03-19T05:00:38;26.47;;;17.70;;
59062;SDS011;44851;45.648;9.004;2023-03-19T05:03:04;28.67;;;16.67;;
59062;SDS011;44851;45.648;9.004;2023-03-19T05:05:30;27.23;;;17.17;;
59062;SDS011;44851;45.648;9.004;2023-03-19T05:07:55;27.63;;;16.87;;
59062;SDS011;44851;45.648;9.004;2023-03-19T05:10:21;27.10;;;16.60;;
59062;SDS011;44851;45.648;9.004;2023-03-19T05:12:47;28.70;;;16.73;;
59062;SDS011;44851;45.648;9.004;2023-03-19T05:15:13;23.80;;;14.57;;
59062;SDS011;44851;45.648;9.004;2023-03-19T05:17:39;26.47;;;17.23;;
59062;SDS011;44851;45.648;9.004;2023-03-19T05:20:05;26.07;;;17.27;;
59062;SDS011;44851;45.648;9.004;2023-03-19T05:22:31;23.70;;;16.47;;
59062;SDS011;44851;45.648;9.004;2023-03-19T05:24:57;24.00;;;14.97;;
59062;SDS011;44851;45.648;9.004;2023-03-19T05:27:22;28.73;;;15.57;;
59062;SDS011;44851;45.648;9.004;2023-03-19T05:29:47;24.13;;;16.33;;
59062;SDS011;44851;45.648;9.004;2023-03-19T05:32:13;23.40;;;15.97;;
59062;SDS011;44851;45.648;9.004;2023-03-19T05:34:39;22.47;;;15.30;;
59062;SDS011;44851;45.648;9.004;2023-03-19T05:37:05;27.93;;;16.43;;
59062;SDS011;44851;45.648;9.004;2023-03-19T05:39:30;24.60;;;16.17;;
59062;SDS011;44851;45.648;9.004;2023-03-19T05:41:56;26.87;;;16.73;;
59062;SDS011;44851;45.648;9.004;2023-03-19T05:44:21;25.90;;;15.70;;
59062;SDS011;44851;45.648;9.004;2023-03-19T05:46:47;23.03;;;15.83;;
59062;SDS011;44851;45.648;9.004;2023-03-19T05:49:12;25.07;;;15.93;;
59062;SDS011;44851;45.648;9.004;2023-03-19T05:51:38;26.77;;;15.47;;
59062;SDS011;44851;45.648;9.004;2023-03-19T05:54:03;24.27;;;14.90;;
59062;SDS011;44851;45.648;9.004;2023-03-19T05:56:29;23.33;;;15.23;;
59062;SDS011;44851;45.648;9.004;2023-03-19T05:58:54;24.50;;;15.77;;
59062;SDS011;44851;45.648;9.004;2023-03-19T06:01:20;23.43;;;16.30;;
59062;SDS011;44851;45.648;9.004;2023-03-19T06:03:46;27.83;;;17.20;;
59062;SDS011;44851;45.648;9.004;2023-03-19T06:06:12;27.37;;;16.80;;
59062;SDS011;44851;45.648;9.004;2023-03-19T06:08:37;26.47;;;16.70;;
59062;SDS011;44851;45.648;9.004;2023-03-19T06:11:03;28.13;;;17.20;;
59062;SDS011;44851;45.648;9.004;2023-03-19T06:13:29;27.20;;;17.27;;
59062;SDS011;44851;45.648;9.004;2023-03-19T06:15:54;25.37;;;16.50;;
59062;SDS011;44851;45.648;9.004;2023-03-19T06:18:20;26.50;;;17.47;;
59062;SDS011;44851;45.648;9.004;2023-03-19T06:20:46;26.70;;;16.17;;
59062;SDS011;44851;45.648;9.004;2023-03-19T06:23:12;22.53;;;15.97;;
59062;SDS011;44851;45.648;9.004;2023-03-19T06:25:38;25.57;;;15.63;;
59062;SDS011;44851;45.648;9.004;2023-03-19T06:28:03;23.70;;;15.87;;
59062;SDS011;44851;45.648;9.004;2023-03-19T06:30:30;23.93;;;16.53;;
59062;SDS011;44851;45.648;9.004;2023-03-19T06:32:55;26.47;;;17.07;;
59062;SDS011;44851;45.648;9.004;2023-03-19T06:35:21;24.20;;;15.87;;
59062;SDS011;44851;45.648;9.004;2023-03-19T06:37:46;22.17;;;15.43;;
59062;SDS011;44851;45.648;9.004;2023-03-19T06:40:13;25.47;;;15.93;;
59062;SDS011;44851;45.648;9.004;2023-03-19T06:42:38;25.77;;;16.87;;
59062;SDS011;44851;45.648;9.004;2023-03-19T06:45:05;24.63;;;14.83;;
59062;SDS011;44851;45.648;9.004;2023-03-19T06:47:31;25.63;;;15.67;;
59062;SDS011;44851;45.648;9.004;2023-03-19T06:49:57;25.40;;;16.67;;
59062;SDS011;44851;45.648;9.004;2023-03-19T06:52:23;23.73;;;16.20;;
59062;SDS011;44851;45.648;9.004;2023-03-19T06:54:49;25.20;;;16.07;;
59062;SDS011;44851;45.648;9.004;2023-03-19T06:57:15;26.17;;;15.87;;
59062;SDS011;44851;45.648;9.004;2023-03-19T06:59:40;26.40;;;18.20;;
59062;SDS011;44851;45.648;9.004;2023-03-19T07:02:07;26.00;;;18.27;;
59062;SDS011;44851;45.648;9.004;2023-03-19T07:04:35;24.57;;;16.10;;
59062;SDS011;44851;45.648;9.004;2023-03-19T07:07:00;24.33;;;16.53;;
59062;SDS011;44851;45.648;9.004;2023-03-19T07:09:26;25.37;;;16.93;;
59062;SDS011;44851;45.648;9.004;2023-03-19T07:11:52;25.63;;;17.63;;
59062;SDS011;44851;45.648;9.004;2023-03-19T07:14:17;34.73;;;18.67;;
59062;SDS011;44851;45.648;9.004;2023-03-19T07:16:43;25.13;;;16.63;;
59062;SDS011;44851;45.648;9.004;2023-03-19T07:19:08;27.47;;;16.93;;
59062;SDS011;44851;45.648;9.004;2023-03-19T07:21:34;25.57;;;17.27;;
59062;SDS011;44851;45.648;9.004;2023-03-19T07:23:59;29.47;;;17.73;;
59062;SDS011;44851;45.648;9.004;2023-03-19T07:26:25;25.93;;;18.33;;
59062;SDS011;44851;45.648;9.004;2023-03-19T07:28:51;24.07;;;16.40;;
59062;SDS011;44851;45.648;9.004;2023-03-19T07:31:17;28.13;;;17.20;;
59062;SDS011;44851;45.648;9.004;2023-03-19T07:33:42;26.60;;;17.83;;
59062;SDS011;44851;45.648;9.004;2023-03-19T07:36:08;29.17;;;17.27;;
59062;SDS011;44851;45.648;9.004;2023-03-19T07:38:33;24.93;;;17.57;;
59062;SDS011;44851;45.648;9.004;2023-03-19T07:40:59;27.43;;;17.97;;
59062;SDS011;44851;45.648;9.004;2023-03-19T07:43:24;23.37;;;16.43;;
59062;SDS011;44851;45.648;9.004;2023-03-19T07:45:50;22.93;;;16.57;;
59062;SDS011;44851;45.648;9.004;2023-03-19T07:48:15;26.63;;;17.97;;
59062;SDS011;44851;45.648;9.004;2023-03-19T07:50:41;29.23;;;17.67;;
59062;SDS011;44851;45.648;9.004;2023-03-19T07:53:07;25.50;;;17.03;;
59062;SDS011;44851;45.648;9.004;2023-03-19T07:55:32;23.87;;;16.87;;
59062;SDS011;44851;45.648;9.004;2023-03-19T07:57:58;26.10;;;16.97;;
59062;SDS011;44851;45.648;9.004;2023-03-19T08:03:26;25.37;;;17.33;;
59062;SDS011;44851;45.648;9.004;2023-03-19T08:05:53;25.80;;;17.07;;
59062;SDS011;44851;45.648;9.004;2023-03-19T08:08:18;27.40;;;17.57;;
59062;SDS011;44851;45.648;9.004;2023-03-19T08:10:44;27.30;;;17.50;;
59062;SDS011;44851;45.648;9.004;2023-03-19T08:13:09;27.20;;;18.13;;
59062;SDS011;44851;45.648;9.004;2023-03-19T08:15:35;26.50;;;16.77;;
59062;SDS011;44851;45.648;9.004;2023-03-19T08:18:01;24.73;;;17.10;;
59062;SDS011;44851;45.648;9.004;2023-03-19T08:20:28;24.37;;;17.67;;
59062;SDS011;44851;45.648;9.004;2023-03-19T08:22:53;22.87;;;16.50;;
59062;SDS011;44851;45.648;9.004;2023-03-19T08:25:20;26.17;;;17.97;;
59062;SDS011;44851;45.648;9.004;2023-03-19T08:27:46;27.63;;;17.57;;
59062;SDS011;44851;45.648;9.004;2023-03-19T08:30:13;27.00;;;17.27;;
59062;SDS011;44851;45.648;9.004;2023-03-19T08:32:38;27.60;;;17.67;;
59062;SDS011;44851;45.648;9.004;2023-03-19T08:35:04;24.20;;;16.20;;
59062;SDS011;44851;45.648;9.004;2023-03-19T08:37:30;23.77;;;16.60;;
59062;SDS011;44851;45.648;9.004;2023-03-19T08:39:55;23.33;;;16.77;;
59062;SDS011;44851;45.648;9.004;2023-03-19T08:42:21;22.77;;;15.03;;
59062;SDS011;44851;45.648;9.004;2023-03-19T08:44:47;20.77;;;14.67;;
59062;SDS011;44851;45.648;9.004;2023-03-19T08:47:13;22.83;;;15.73;;
59062;SDS011;44851;45.648;9.004;2023-03-19T08:49:39;24.37;;;16.20;;
59062;SDS011;44851;45.648;9.004;2023-03-19T08:52:05;21.03;;;14.43;;
59062;SDS011;44851;45.648;9.004;2023-03-19T08:54:30;22.90;;;15.23;;
59062;SDS011;44851;45.648;9.004;2023-03-19T08:56:56;25.03;;;15.90;;
59062;SDS011;44851;45.648;9.004;2023-03-19T08:59:21;26.53;;;16.93;;
59062;SDS011;44851;45.648;9.004;2023-03-19T09:01:50;21.70;;;15.70;;
59062;SDS011;44851;45.648;9.004;2023-03-19T09:04:16;22.67;;;15.73;;
59062;SDS011;44851;45.648;9.004;2023-03-19T09:06:42;24.83;;;16.97;;
59062;SDS011;44851;45.648;9.004;2023-03-19T09:09:09;23.90;;;16.23;;
59062;SDS011;44851;45.648;9.004;2023-03-19T09:11:34;22.00;;;17.10;;
59062;SDS011;44851;45.648;9.004;2023-03-19T09:14:00;24.57;;;17.20;;
59062;SDS011;44851;45.648;9.004;2023-03-19T09:16:25;21.87;;;15.53;;
59062;SDS011;44851;45.648;9.004;2023-03-19T09:18:51;23.90;;;16.20;;
59062;SDS011;44851;45.648;9.004;2023-03-19T09:21:16;21.63;;;15.60;;
59062;SDS011;44851;45.648;9.004;2023-03-19T09:23:42;25.57;;;16.80;;
59062;SDS011;44851;45.648;9.004;2023-03-19T09:26:07;22.27;;;16.20;;
59062;SDS011;44851;45.648;9.004;2023-03-19T09:28:33;24.90;;;16.33;;
59062;SDS011;44851;45.648;9.004;2023-03-19T09:31:00;24.03;;;17.27;;
59062;SDS011;44851;45.648;9.004;2023-03-19T09:33:30;23.20;;;16.03;;
59062;SDS011;44851;45.648;9.004;2023-03-19T09:35:57;25.10;;;16.90;;
59062;SDS011;44851;45.648;9.004;2023-03-19T09:38:22;21.77;;;16.40;;
59062;SDS011;44851;45.648;9.004;2023-03-19T09:40:49;26.07;;;16.60;;
59062;SDS011;44851;45.648;9.004;2023-03-19T09:46:10;22.53;;;16.73;;
59062;SDS011;44851;45.648;9.004;2023-03-19T09:48:49;20.80;;;15.17;;
59062;SDS011;44851;45.648;9.004;2023-03-19T09:51:23;24.10;;;16.60;;
59062;SDS011;44851;45.648;9.004;2023-03-19T09:53:57;24.70;;;16.07;;
59062;SDS011;44851;45.648;9.004;2023-03-19T09:56:27;22.53;;;15.53;;
59062;SDS011;44851;45.648;9.004;2023-03-19T09:58:55;22.83;;;15.20;;
59062;SDS011;44851;45.648;9.004;2023-03-19T10:01:25;20.30;;;14.90;;
59062;SDS011;44851;45.648;9.004;2023-03-19T10:06:38;23.30;;;15.87;;
59062;SDS011;44851;45.648;9.004;2023-03-19T10:14:50;22.17;;;14.50;;
59062;SDS011;44851;45.648;9.004;2023-03-19T10:17:30;22.80;;;15.57;;
59062;SDS011;44851;45.648;9.004;2023-03-19T10:20:15;21.77;;;14.13;;
59062;SDS011;44851;45.648;9.004;2023-03-19T10:22:48;17.77;;;12.13;;
59062;SDS011;44851;45.648;9.004;2023-03-19T10:25:19;14.70;;;10.73;;
59062;SDS011;44851;45.648;9.004;2023-03-19T10:27:55;14.37;;;9.97;;
59062;SDS011;44851;45.648;9.004;2023-03-19T10:30:28;17.50;;;12.47;;
59062;SDS011;44851;45.648;9.004;2023-03-19T10:35:48;17.87;;;13.33;;
59062;SDS011;44851;45.648;9.004;2023-03-19T10:38:22;20.10;;;13.30;;
59062;SDS011;44851;45.648;9.004;2023-03-19T10:44:00;19.87;;;12.17;;
59062;SDS011;44851;45.648;9.004;2023-03-19T10:46:39;16.70;;;12.13;;
59062;SDS011;44851;45.648;9.004;2023-03-19T10:49:11;20.97;;;12.60;;
59062;SDS011;44851;45.648;9.004;2023-03-19T10:51:38;15.30;;;11.40;;
59062;SDS011;44851;45.648;9.004;2023-03-19T10:54:23;17.20;;;12.57;;
59062;SDS011;44851;45.648;9.004;2023-03-19T10:56:50;16.10;;;11.67;;
59062;SDS011;44851;45.648;9.004;2023-03-19T10:59:21;18.93;;;11.03;;
59062;SDS011;44851;45.648;9.004;2023-03-19T11:01:57;16.20;;;11.63;;
59062;SDS011;44851;45.648;9.004;2023-03-19T11:04:25;18.37;;;12.10;;
59062;SDS011;44851;45.648;9.004;2023-03-19T11:06:52;16.80;;;11.43;;
59062;SDS011;44851;45.648;9.004;2023-03-19T11:09:31;14.80;;;11.43;;
59062;SDS011;44851;45.648;9.004;2023-03-19T11:12:07;16.37;;;11.70;;
59062;SDS011;44851;45.648;9.004;2023-03-19T11:14:41;21.83;;;13.57;;
59062;SDS011;44851;45.648;9.004;2023-03-19T11:19:53;14.40;;;10.27;;
59062;SDS011;44851;45.648;9.004;2023-03-19T11:22:26;16.97;;;11.00;;
59062;SDS011;44851;45.648;9.004;2023-03-19T11:24:59;18.73;;;12.67;;
59062;SDS011;44851;45.648;9.004;2023-03-19T11:27:27;14.97;;;11.07;;
59062;SDS011;44851;45.648;9.004;2023-03-19T11:29:55;15.83;;;11.20;;
59062;SDS011;44851;45.648;9.004;2023-03-19T11:32:24;15.20;;;10.03;;
59062;SDS011;44851;45.648;9.004;2023-03-19T11:37:32;14.40;;;10.87;;
59062;SDS011;44851;45.648;9.004;2023-03-19T11:59:35;10.60;;;7.77;;
59062;SDS011;44851;45.648;9.004;2023-03-19T12:07:43;13.73;;;9.90;;
59062;SDS011;44851;45.648;9.004;2023-03-19T12:18:09;12.80;;;9.07;;
59062;SDS011;44851;45.648;9.004;2023-03-19T12:28:35;13.07;;;9.40;;
59062;SDS011;44851;45.648;9.004;2023-03-19T12:32:08;10.77;;;7.93;;
59062;SDS011;44851;45.648;9.004;2023-03-19T12:34:30;11.77;;;8.93;;
59062;SDS011;44851;45.648;9.004;2023-03-19T12:37:06;10.73;;;8.63;;
59062;SDS011;44851;45.648;9.004;2023-03-19T12:39:40;13.67;;;10.03;;
59062;SDS011;44851;45.648;9.004;2023-03-19T12:42:13;15.60;;;8.97;;
59062;SDS011;44851;45.648;9.004;2023-03-19T12:44:43;12.50;;;9.37;;
59062;SDS011;44851;45.648;9.004;2023-03-19T12:47:13;14.60;;;10.03;;
59062;SDS011;44851;45.648;9.004;2023-03-19T12:49:50;12.13;;;8.93;;
59062;SDS011;44851;45.648;9.004;2023-03-19T13:00:09;14.60;;;10.37;;
59062;SDS011;44851;45.648;9.004;2023-03-19T13:05:31;16.20;;;11.27;;
59062;SDS011;44851;45.648;9.004;2023-03-19T13:10:57;17.33;;;11.53;;
59062;SDS011;44851;45.648;9.004;2023-03-19T13:16:45;17.90;;;12.03;;
59062;SDS011;44851;45.648;9.004;2023-03-19T13:21:57;18.57;;;11.53;;
59062;SDS011;44851;45.648;9.004;2023-03-19T13:26:58;18.77;;;12.40;;
59062;SDS011;44851;45.648;9.004;2023-03-19T13:29:28;17.70;;;11.77;;
59062;SDS011;44851;45.648;9.004;2023-03-19T13:32:04;16.53;;;11.07;;
59062;SDS011;44851;45.648;9.004;2023-03-19T13:34:46;55.30;;;30.53;;
59062;SDS011;44851;45.648;9.004;2023-03-19T13:37:15;28.20;;;17.60;;
59062;SDS011;44851;45.648;9.004;2023-03-19T13:39:44;16.03;;;11.67;;
59062;SDS011;44851;45.648;9.004;2023-03-19T13:56:03;17.23;;;10.97;;
59062;SDS011;44851;45.648;9.004;2023-03-19T13:58:29;13.43;;;9.63;;
59062;SDS011;44851;45.648;9.004;2023-03-19T14:03:55;16.30;;;11.30;;
59062;SDS011;44851;45.648;9.004;2023-03-19T14:06:29;17.70;;;10.53;;
59062;SDS011;44851;45.648;9.004;2023-03-19T14:08:58;46.50;;;26.37;;
59062;SDS011;44851;45.648;9.004;2023-03-19T14:11:29;13.87;;;10.93;;
59062;SDS011;44851;45.648;9.004;2023-03-19T14:14:06;15.67;;;11.53;;
59062;SDS011;44851;45.648;9.004;2023-03-19T14:16:42;14.27;;;10.07;;
59062;SDS011;44851;45.648;9.004;2023-03-19T14:19:15;14.90;;;10.30;;
59062;SDS011;44851;45.648;9.004;2023-03-19T14:24:33;19.30;;;12.87;;
59062;SDS011;44851;45.648;9.004;2023-03-19T14:27:01;18.53;;;11.93;;
59062;SDS011;44851;45.648;9.004;2023-03-19T14:29:36;16.43;;;10.53;;
59062;SDS011;44851;45.648;9.004;2023-03-19T14:32:07;14.33;;;10.63;;
59062;SDS011;44851;45.648;9.004;2023-03-19T14:34:42;15.13;;;9.60;;
59062;SDS011;44851;45.648;9.004;2023-03-19T14:37:25;43.77;;;32.73;;
59062;SDS011;44851;45.648;9.004;2023-03-19T14:40:11;15.43;;;11.30;;
59062;SDS011;44851;45.648;9.004;2023-03-19T14:43:24;15.07;;;10.83;;
59062;SDS011;44851;45.648;9.004;2023-03-19T14:53:57;16.37;;;10.77;;
59062;SDS011;44851;45.648;9.004;2023-03-19T14:56:33;13.10;;;9.80;;
59062;SDS011;44851;45.648;9.004;2023-03-19T14:59:00;13.17;;;10.87;;
59062;SDS011;44851;45.648;9.004;2023-03-19T15:01:28;13.77;;;10.60;;
59062;SDS011;44851;45.648;9.004;2023-03-19T15:03:59;16.03;;;10.63;;
59062;SDS011;44851;45.648;9.004;2023-03-19T15:06:35;13.60;;;10.40;;
59062;SDS011;44851;45.648;9.004;2023-03-19T15:09:26;15.20;;;10.63;;
59062;SDS011;44851;45.648;9.004;2023-03-19T15:17:36;15.60;;;11.37;;
59062;SDS011;44851;45.648;9.004;2023-03-19T15:20:03;15.73;;;11.70;;
59062;SDS011;44851;45.648;9.004;2023-03-19T15:22:38;15.50;;;11.47;;
59062;SDS011;44851;45.648;9.004;2023-03-19T15:25:04;18.53;;;12.60;;
59062;SDS011;44851;45.648;9.004;2023-03-19T15:27:34;17.40;;;12.97;;
59062;SDS011;44851;45.648;9.004;2023-03-19T15:30:00;16.90;;;12.53;;
59062;SDS011;44851;45.648;9.004;2023-03-19T15:32:29;15.37;;;12.50;;
59062;SDS011;44851;45.648;9.004;2023-03-19T15:34:57;16.60;;;12.10;;
59062;SDS011;44851;45.648;9.004;2023-03-19T15:37:23;18.67;;;13.40;;
59062;SDS011;44851;45.648;9.004;2023-03-19T15:39:50;17.20;;;12.43;;
59062;SDS011;44851;45.648;9.004;2023-03-19T15:42:19;15.07;;;11.90;;
59062;SDS011;44851;45.648;9.004;2023-03-19T15:44:51;18.13;;;12.47;;
59062;SDS011;44851;45.648;9.004;2023-03-19T15:47:22;17.93;;;12.73;;
59062;SDS011;44851;45.648;9.004;2023-03-19T15:50:01;15.43;;;11.43;;
59062;SDS011;44851;45.648;9.004;2023-03-19T15:52:32;16.23;;;12.53;;
59062;SDS011;44851;45.648;9.004;2023-03-19T15:55:01;18.93;;;12.90;;
59062;SDS011;44851;45.648;9.004;2023-03-19T15:57:27;20.07;;;14.10;;
59062;SDS011;44851;45.648;9.004;2023-03-19T15:59:53;20.43;;;13.87;;
59062;SDS011;44851;45.648;9.004;2023-03-19T16:02:32;17.40;;;13.53;;
59062;SDS011;44851;45.648;9.004;2023-03-19T16:04:59;23.83;;;15.03;;
59062;SDS011;44851;45.648;9.004;2023-03-19T16:09:54;17.20;;;13.73;;
59062;SDS011;44851;45.648;9.004;2023-03-19T16:12:54;15.57;;;12.30;;
59062;SDS011;44851;45.648;9.004;2023-03-19T16:15:19;15.90;;;12.13;;
59062;SDS011;44851;45.648;9.004;2023-03-19T16:17:48;15.50;;;11.93;;
59062;SDS011;44851;45.648;9.004;2023-03-19T16:20:14;20.70;;;12.67;;
59062;SDS011;44851;45.648;9.004;2023-03-19T16:22:40;14.50;;;11.67;;
59062;SDS011;44851;45.648;9.004;2023-03-19T16:25:16;15.90;;;10.80;;
59062;SDS011;44851;45.648;9.004;2023-03-19T16:27:43;12.90;;;10.20;;
59062;SDS011;44851;45.648;9.004;2023-03-19T16:30:20;17.43;;;11.10;;
59062;SDS011;44851;45.648;9.004;2023-03-19T16:32:57;16.10;;;11.10;;
59062;SDS011;44851;45.648;9.004;2023-03-19T16:35:24;13.80;;;10.30;;
59062;SDS011;44851;45.648;9.004;2023-03-19T16:37:52;15.83;;;10.33;;
59062;SDS011;44851;45.648;9.004;2023-03-19T16:47:40;15.17;;;10.40;;